Time;durP1;ratioP1;P1;durP2;ratioP2;P2;SDS_P1;SDS_P2;PMS_P1;PMS_P2;Temp;Humidity;BMP_temperature;BMP_pressure;BME280_temperature;BME280_humidity;BME280_pressure;Samples;Min_cycle;Max_cycle;Signal;HPM_P1;HPM_P2
2022/01/26 00:07:19;;;;;;;3.42;2.00;;;23.50;32.10;;;;;;5024106;28;20036;-49
2022/01/26 00:09:45;;;;;;;3.08;1.92;;;23.50;32.10;;;;;;5025057;28;20025;-49
2022/01/26 00:12:11;;;;;;;3.63;2.35;;;23.50;32.10;;;;;;5023887;28;20034;-49
2022/01/26 00:14:41;;;;;;;3.88;2.53;;;23.50;32.10;;;;;;5024456;28;20455;-49
2022/01/26 00:17:07;;;;;;;3.13;1.77;;;23.50;32.10;;;;;;5025559;28;20295;-50
2022/01/26 00:19:49;;;;;;;3.42;2.03;;;23.50;32.10;;;;;;5040102;28;20033;-50
2022/01/26 00:22:33;;;;;;;4.68;2.47;;;23.50;32.10;;;;;;5040065;28;20053;-49
2022/01/26 00:27:57;;;;;;;3.40;2.08;;;23.40;32.10;;;;;;5025138;28;20129;-49
2022/01/26 00:41:09;;;;;;;3.78;2.63;;;23.30;32.10;;;;;;5024912;28;20740;-50
2022/01/26 00:43:37;;;;;;;3.30;2.17;;;23.30;32.20;;;;;;5025790;28;20082;-49
2022/01/26 00:46:05;;;;;;;3.60;1.83;;;23.30;32.20;;;;;;5025490;28;20041;-50
2022/01/26 00:48:32;;;;;;;3.42;2.10;;;23.30;32.20;;;;;;5025910;28;20017;-49
2022/01/26 00:51:02;;;;;;;3.65;2.50;;;23.30;32.20;;;;;;5024535;28;20680;-48
2022/01/26 00:53:33;;;;;;;4.20;2.25;;;23.30;32.20;;;;;;5025810;28;20076;-48
2022/01/26 00:56:00;;;;;;;4.20;2.78;;;23.30;32.20;;;;;;5025103;28;20029;-49
2022/01/26 00:58:26;;;;;;;3.60;1.85;;;23.30;32.20;;;;;;5025359;28;20029;-48
2022/01/26 01:00:53;;;;;;;3.95;2.15;;;23.30;32.20;;;;;;5023062;28;20567;-48
2022/01/26 01:03:19;;;;;;;3.63;2.28;;;23.30;32.20;;;;;;5025071;28;20042;-48
2022/01/26 01:05:54;;;;;;;4.10;2.50;;;23.20;32.20;;;;;;5025441;28;20389;-48
2022/01/26 01:08:23;;;;;;;3.25;2.35;;;23.20;32.10;;;;;;5024834;28;20029;-49
2022/01/26 01:10:50;;;;;;;3.35;2.20;;;23.20;32.10;;;;;;5023180;28;20408;-49
2022/01/26 01:13:20;;;;;;;3.10;2.00;;;23.20;32.10;;;;;;5024530;28;20022;-49
2022/01/26 01:15:48;;;;;;;3.50;2.30;;;23.20;32.20;;;;;;5024307;28;20017;-49
2022/01/26 01:18:21;;;;;;;3.55;2.53;;;23.10;32.20;;;;;;5022914;28;20473;-48
2022/01/26 01:31:46;;;;;;;4.30;2.40;;;23.10;32.30;;;;;;5024195;28;20033;-48
2022/01/26 01:34:14;;;;;;;3.33;2.00;;;23.10;32.30;;;;;;5024710;28;20727;-48
2022/01/26 01:36:43;;;;;;;3.95;2.53;;;23.10;32.30;;;;;;5023591;28;20713;-48
2022/01/26 01:39:08;;;;;;;3.30;2.13;;;23.10;32.30;;;;;;5024631;28;20052;-46
2022/01/26 01:41:36;;;;;;;3.80;2.53;;;23.00;32.30;;;;;;5024556;28;20065;-49
2022/01/26 01:44:04;;;;;;;3.97;2.72;;;23.10;32.40;;;;;;5023812;28;20039;-49
2022/01/26 01:46:30;;;;;;;4.72;2.80;;;23.00;32.30;;;;;;5023548;28;20038;-50
2022/01/26 01:48:56;;;;;;;3.40;2.33;;;23.10;32.40;;;;;;5022389;28;20048;-48
2022/01/26 01:51:29;;;;;;;3.80;2.75;;;23.10;32.40;;;;;;5022061;28;20030;-49
2022/01/26 01:53:55;;;;;;;3.95;2.60;;;23.00;32.30;;;;;;5022010;28;20025;-48
2022/01/26 01:56:24;;;;;;;3.92;2.60;;;23.00;32.30;;;;;;5024125;28;20103;-49
2022/01/26 01:58:50;;;;;;;4.30;3.03;;;23.00;32.30;;;;;;5023136;28;20029;-48
2022/01/26 02:01:16;;;;;;;4.95;3.00;;;23.00;32.30;;;;;;5022863;28;20052;-50
2022/01/26 02:03:41;;;;;;;3.83;2.50;;;23.00;32.30;;;;;;5024151;28;20033;-48
2022/01/26 02:06:07;;;;;;;5.10;2.95;;;23.00;32.40;;;;;;5023933;28;20511;-49
2022/01/26 02:08:34;;;;;;;4.28;2.92;;;23.00;32.30;;;;;;5024222;28;20669;-49
2022/01/26 02:11:00;;;;;;;3.67;2.50;;;23.00;32.30;;;;;;5022469;28;20072;-50
2022/01/26 02:13:34;;;;;;;5.25;2.95;;;22.90;32.40;;;;;;5022840;28;20132;-50
2022/01/26 02:16:10;;;;;;;3.70;2.58;;;23.00;32.40;;;;;;5024023;28;20026;-49
2022/01/26 02:51:44;;;;;;;4.60;3.38;;;22.80;32.30;;;;;;5027068;28;20032;-48
2022/01/26 03:02:03;;;;;;;4.35;3.17;;;22.80;32.30;;;;;;5026666;28;20152;-49
2022/01/26 03:07:17;;;;;;;4.85;3.05;;;22.70;32.30;;;;;;5027831;28;20028;-49
2022/01/26 03:09:58;;;;;;;4.38;2.90;;;22.70;32.40;;;;;;5027122;28;20116;-52
2022/01/26 03:12:33;;;;;;;4.68;3.08;;;22.70;32.30;;;;;;5026843;28;20040;-47
2022/01/26 03:15:08;;;;;;;4.60;3.17;;;22.70;32.40;;;;;;5027894;28;20029;-47
2022/01/26 03:17:55;;;;;;;4.28;2.90;;;22.70;32.40;;;;;;5027475;28;20057;-49
2022/01/26 03:20:20;;;;;;;4.50;3.17;;;22.70;32.40;;;;;;5027386;28;20033;-49
2022/01/26 03:28:22;;;;;;;4.85;3.35;;;22.60;32.30;;;;;;5026893;28;20026;-49
2022/01/26 03:31:33;;;;;;;3.90;2.75;;;22.60;32.30;;;;;;5027169;28;20037;-49
2022/01/26 03:33:59;;;;;;;4.47;3.28;;;22.60;32.30;;;;;;5027129;28;20025;-48
2022/01/26 03:36:29;;;;;;;4.53;3.25;;;22.60;32.30;;;;;;5026927;28;20025;-48
2022/01/26 03:39:08;;;;;;;4.75;3.28;;;22.60;32.30;;;;;;5026871;28;20501;-49
2022/01/26 03:44:05;;;;;;;4.32;3.05;;;22.60;32.30;;;;;;5026187;28;20037;-50
2022/01/26 03:46:31;;;;;;;5.07;3.33;;;22.60;32.30;;;;;;5025286;28;20112;-48
2022/01/26 03:48:57;;;;;;;4.65;3.65;;;22.60;32.30;;;;;;5027171;28;20224;-48
2022/01/26 03:51:23;;;;;;;5.95;3.30;;;22.60;32.30;;;;;;5008515;28;20509;-48
2022/01/26 03:53:49;;;;;;;4.82;3.63;;;22.60;32.30;;;;;;5024654;28;20021;-48
2022/01/26 03:56:14;;;;;;;5.70;3.33;;;22.60;32.30;;;;;;5025000;28;20025;-49
2022/01/26 03:58:40;;;;;;;4.65;2.97;;;22.60;32.30;;;;;;5026631;28;20034;-48
2022/01/26 04:01:06;;;;;;;4.20;2.97;;;22.60;32.30;;;;;;5026013;28;20104;-48
2022/01/26 04:03:31;;;;;;;4.82;3.65;;;22.50;32.30;;;;;;5026406;28;20068;-49
2022/01/26 04:05:57;;;;;;;4.32;2.97;;;22.50;32.40;;;;;;5026740;28;20033;-49
2022/01/26 04:08:28;;;;;;;4.80;3.45;;;22.50;32.40;;;;;;5025969;28;20033;-48
2022/01/26 04:13:23;;;;;;;4.40;3.33;;;22.50;32.40;;;;;;5025572;28;20095;-49
2022/01/26 04:15:49;;;;;;;4.47;3.10;;;22.50;32.30;;;;;;5026607;28;20639;-48
2022/01/26 04:18:20;;;;;;;4.43;3.15;;;22.50;32.30;;;;;;5026535;28;20079;-49
2022/01/26 04:20:50;;;;;;;4.93;3.45;;;22.50;32.30;;;;;;5025719;28;20029;-48
2022/01/26 04:23:34;;;;;;;4.38;3.15;;;22.40;32.20;;;;;;5026349;28;20488;-50
2022/01/26 04:26:00;;;;;;;4.60;3.15;;;22.50;32.30;;;;;;5025778;28;20548;-49
2022/01/26 04:28:42;;;;;;;4.63;3.33;;;22.40;32.30;;;;;;5025121;28;20037;-50
2022/01/26 04:31:09;;;;;;;4.80;3.40;;;22.50;33.00;;;;;;5025674;28;20045;-47
2022/01/26 04:33:35;;;;;;;4.97;3.15;;;22.50;32.30;;;;;;5025796;28;20574;-49
2022/01/26 04:36:03;;;;;;;4.53;3.38;;;22.40;32.30;;;;;;5025993;28;20024;-49
2022/01/26 04:38:38;;;;;;;4.25;3.42;;;22.40;32.30;;;;;;5023926;28;20662;-48
2022/01/26 04:41:54;;;;;;;3.75;2.67;;;22.40;32.30;;;;;;5025358;28;20064;-47
2022/01/26 04:43:53;;;;;;;4.53;3.22;;;22.40;32.30;;;;;;5024690;28;20052;-50
2022/01/26 04:46:19;;;;;;;4.53;2.90;;;22.40;32.30;;;;;;5024812;28;20025;-50
2022/01/26 04:48:45;;;;;;;3.95;2.85;;;22.40;32.30;;;;;;5025782;28;20066;-49
2022/01/26 04:51:11;;;;;;;4.40;2.90;;;22.40;32.30;;;;;;5024836;28;20036;-49
2022/01/26 04:53:36;;;;;;;4.90;3.00;;;22.40;32.30;;;;;;5025533;28;20026;-47
2022/01/26 04:56:02;;;;;;;4.35;2.92;;;22.40;32.30;;;;;;5025174;28;20108;-48
2022/01/26 04:58:28;;;;;;;5.07;3.38;;;22.30;32.30;;;;;;5024703;28;20708;-48
2022/01/26 05:00:54;;;;;;;4.25;3.13;;;22.30;32.40;;;;;;5021531;28;20021;-48
2022/01/26 05:03:19;;;;;;;4.50;3.20;;;22.30;32.30;;;;;;5024794;28;20045;-48
2022/01/26 05:05:45;;;;;;;4.57;3.03;;;22.30;32.30;;;;;;5024854;28;20022;-48
2022/01/26 05:08:11;;;;;;;4.82;3.20;;;22.30;32.30;;;;;;5025189;28;20034;-48
2022/01/26 05:10:39;;;;;;;5.00;3.15;;;22.30;32.30;;;;;;5022095;28;20108;-49
2022/01/26 05:13:04;;;;;;;5.03;3.50;;;22.30;32.40;;;;;;5020557;28;20124;-48
2022/01/26 05:15:30;;;;;;;4.40;2.90;;;22.30;32.40;;;;;;5023381;28;20101;-49
2022/01/26 05:17:56;;;;;;;4.60;3.20;;;22.30;32.50;;;;;;5023578;28;20036;-49
2022/01/26 05:20:22;;;;;;;4.13;2.97;;;22.30;32.50;;;;;;5023780;28;20044;-49
2022/01/26 05:22:47;;;;;;;5.20;3.45;;;22.30;32.50;;;;;;5024204;28;20037;-48
2022/01/26 05:25:14;;;;;;;5.28;3.58;;;22.30;33.20;;;;;;5023318;28;20355;-47
2022/01/26 05:27:40;;;;;;;7.07;4.07;;;22.30;34.10;;;;;;5023901;28;20173;-48
2022/01/26 05:30:07;;;;;;;22.80;10.93;;;22.30;34.50;;;;;;5022950;28;20033;-48
2022/01/26 05:32:33;;;;;;;49.83;17.98;;;22.30;34.20;;;;;;5022751;28;20029;-48
2022/01/26 05:34:59;;;;;;;43.63;17.45;;;22.40;34.30;;;;;;5020638;28;20075;-49
2022/01/26 05:37:25;;;;;;;36.30;16.48;;;22.30;34.30;;;;;;5023419;28;20032;-48
2022/01/26 05:39:51;;;;;;;41.85;15.95;;;22.40;34.00;;;;;;5021762;28;20057;-50
2022/01/26 05:42:17;;;;;;;35.53;15.65;;;22.40;34.00;;;;;;5020629;28;20650;-48
2022/01/26 05:44:46;;;;;;;43.90;16.55;;;22.40;33.90;;;;;;5021939;28;20034;-49
2022/01/26 05:47:17;;;;;;;31.92;14.32;;;22.40;33.70;;;;;;5020185;28;20025;-48
2022/01/26 05:49:43;;;;;;;31.23;14.25;;;22.40;33.70;;;;;;5022657;28;20049;-49
2022/01/26 05:52:10;;;;;;;31.50;13.95;;;22.50;33.70;;;;;;5020858;28;20025;-49
2022/01/26 05:54:36;;;;;;;28.45;13.35;;;22.50;33.70;;;;;;5023544;28;20021;-48
2022/01/26 05:57:02;;;;;;;29.48;12.05;;;22.50;33.70;;;;;;5023746;28;20090;-54
2022/01/26 05:59:27;;;;;;;23.23;10.65;;;22.50;33.70;;;;;;5024401;28;20108;-48
2022/01/26 06:01:54;;;;;;;18.95;9.55;;;22.60;33.60;;;;;;5023318;28;20029;-48
2022/01/26 06:04:19;;;;;;;20.58;9.38;;;22.60;33.50;;;;;;5023930;28;20094;-48
2022/01/26 06:06:45;;;;;;;20.85;9.20;;;22.60;33.30;;;;;;5023854;28;20021;-48
2022/01/26 06:09:11;;;;;;;19.63;9.88;;;22.70;33.30;;;;;;5023079;28;20032;-48
2022/01/26 06:11:37;;;;;;;19.38;8.65;;;22.80;33.30;;;;;;5022211;28;20033;-49
2022/01/26 06:14:03;;;;;;;18.73;8.88;;;22.80;33.30;;;;;;5023424;28;20703;-49
2022/01/26 06:16:29;;;;;;;15.05;8.18;;;22.90;33.40;;;;;;5020903;28;20034;-49
2022/01/26 06:18:54;;;;;;;13.43;7.55;;;23.00;33.50;;;;;;5022840;28;20089;-49
2022/01/26 06:21:20;;;;;;;12.98;6.93;;;23.10;33.40;;;;;;5022628;28;20060;-49
2022/01/26 06:23:46;;;;;;;12.23;6.45;;;23.20;33.20;;;;;;5023594;28;20022;-50
2022/01/26 06:26:12;;;;;;;13.55;6.78;;;23.20;33.10;;;;;;5020362;28;20030;-49
2022/01/26 06:28:37;;;;;;;13.15;6.60;;;23.30;33.00;;;;;;5005266;28;20021;-49
2022/01/26 06:31:09;;;;;;;10.77;5.95;;;23.30;32.90;;;;;;5022577;28;20056;-49
2022/01/26 06:33:35;;;;;;;12.48;5.78;;;23.40;32.80;;;;;;5023346;28;20025;-49
2022/01/26 06:36:03;;;;;;;10.77;5.68;;;23.50;32.70;;;;;;5023440;28;20076;-48
2022/01/26 06:38:29;;;;;;;10.88;5.32;;;23.50;32.60;;;;;;5023673;28;21026;-48
2022/01/26 06:40:57;;;;;;;8.75;5.03;;;23.60;32.50;;;;;;5022685;28;20080;-48
2022/01/26 06:43:26;;;;;;;8.48;5.72;;;23.70;32.50;;;;;;5022836;28;20185;-49
2022/01/26 06:46:02;;;;;;;8.50;4.80;;;23.70;32.40;;;;;;5024330;28;20118;-49
2022/01/26 06:50:57;;;;;;;7.20;4.53;;;23.80;32.20;;;;;;5023593;28;20430;-48
2022/01/26 06:53:23;;;;;;;7.97;5.18;;;23.90;32.20;;;;;;5022721;28;20052;-50
2022/01/26 06:55:49;;;;;;;7.10;4.45;;;23.90;32.10;;;;;;5024466;28;20484;-49
2022/01/26 06:58:14;;;;;;;7.45;4.75;;;24.00;32.00;;;;;;5022526;28;20036;-49
2022/01/26 07:00:41;;;;;;;7.85;4.65;;;24.10;31.90;;;;;;5022990;28;20465;-48
2022/01/26 07:03:06;;;;;;;8.77;5.50;;;24.10;31.90;;;;;;5023831;28;20561;-49
2022/01/26 07:05:32;;;;;;;7.00;4.72;;;24.20;31.70;;;;;;5024573;28;20036;-49
2022/01/26 07:07:58;;;;;;;7.10;4.45;;;24.20;31.70;;;;;;5023235;28;20738;-49
2022/01/26 07:10:23;;;;;;;5.65;4.05;;;24.30;31.60;;;;;;5024075;28;20022;-50
2022/01/26 07:12:49;;;;;;;6.30;4.28;;;24.30;31.60;;;;;;5023731;28;20563;-49
2022/01/26 07:23:26;;;;;;;6.93;4.97;;;24.50;31.20;;;;;;5023552;28;20358;-50
2022/01/26 07:25:52;;;;;;;6.13;4.13;;;24.60;31.20;;;;;;5022935;28;20041;-48
2022/01/26 07:28:18;;;;;;;6.68;4.28;;;24.60;31.00;;;;;;5025277;28;20040;-49
2022/01/26 07:30:43;;;;;;;6.55;4.05;;;24.70;30.90;;;;;;5025923;28;20029;-50
2022/01/26 07:33:09;;;;;;;6.85;4.10;;;24.70;31.20;;;;;;5026372;28;20033;-48
2022/01/26 07:35:35;;;;;;;6.05;4.40;;;24.80;31.40;;;;;;5026599;28;20021;-49
2022/01/26 07:38:03;;;;;;;6.38;4.32;;;24.80;31.30;;;;;;5027237;28;20117;-49
2022/01/26 07:40:30;;;;;;;5.97;3.70;;;24.80;31.40;;;;;;5023712;28;20587;-50
2022/01/26 07:42:56;;;;;;;6.55;3.92;;;24.90;31.50;;;;;;5026271;28;20030;-48
2022/01/26 07:45:22;;;;;;;5.82;3.92;;;24.90;31.20;;;;;;5027259;28;20107;-50
2022/01/26 07:47:51;;;;;;;5.88;3.97;;;24.90;31.20;;;;;;5026731;28;20043;-49
2022/01/26 07:50:18;;;;;;;6.10;3.95;;;25.00;31.10;;;;;;5027946;28;20037;-49
2022/01/26 07:52:44;;;;;;;7.30;4.32;;;25.00;31.00;;;;;;5026763;28;20025;-49
2022/01/26 07:55:14;;;;;;;5.60;4.03;;;25.00;30.90;;;;;;5027636;28;20091;-50
2022/01/26 07:57:40;;;;;;;6.93;4.28;;;25.00;30.90;;;;;;5006052;28;20046;-48
2022/01/26 08:00:07;;;;;;;5.88;3.53;;;25.10;30.80;;;;;;5007323;28;20029;-49
2022/01/26 08:02:32;;;;;;;5.22;3.47;;;25.10;30.80;;;;;;5013968;28;20237;-48
2022/01/26 08:04:58;;;;;;;5.65;3.42;;;25.10;30.70;;;;;;5027026;28;20121;-48
2022/01/26 08:07:24;;;;;;;5.97;3.53;;;25.10;30.60;;;;;;5027252;28;20296;-49
2022/01/26 08:09:50;;;;;;;4.88;3.22;;;25.20;30.60;;;;;;5027170;28;20021;-48
2022/01/26 08:12:16;;;;;;;4.85;3.40;;;25.20;30.60;;;;;;5026031;28;20038;-49
2022/01/26 08:14:45;;;;;;;5.15;3.05;;;25.20;30.50;;;;;;5024438;28;20033;-49
2022/01/26 08:17:14;;;;;;;4.68;3.05;;;25.20;30.50;;;;;;5026542;28;20087;-48
2022/01/26 08:19:40;;;;;;;5.05;3.63;;;25.20;30.40;;;;;;5026530;28;20041;-50
2022/01/26 08:22:06;;;;;;;6.60;3.83;;;25.30;30.30;;;;;;5026341;28;20041;-49
2022/01/26 08:24:32;;;;;;;4.60;2.92;;;25.30;30.30;;;;;;5026461;28;20040;-49
2022/01/26 08:27:07;;;;;;;5.55;3.28;;;25.30;30.40;;;;;;5026409;28;20045;-52
2022/01/26 08:29:42;;;;;;;4.72;3.15;;;25.30;30.30;;;;;;5024478;28;20064;-49
2022/01/26 08:32:08;;;;;;;5.00;2.95;;;25.30;30.20;;;;;;5025809;28;20112;-49
2022/01/26 08:34:34;;;;;;;4.53;2.97;;;25.40;30.10;;;;;;5026518;28;20101;-48
2022/01/26 08:37:00;;;;;;;4.80;2.90;;;25.40;30.00;;;;;;5026928;28;20105;-50
2022/01/26 08:39:26;;;;;;;4.47;2.78;;;25.30;30.00;;;;;;5024494;28;20460;-50
2022/01/26 08:41:52;;;;;;;5.53;3.10;;;25.40;30.00;;;;;;5023793;28;20065;-49
2022/01/26 08:44:17;;;;;;;4.50;2.75;;;25.40;30.00;;;;;;5026429;28;20120;-49
2022/01/26 08:46:43;;;;;;;4.57;2.55;;;25.40;30.00;;;;;;5025720;28;20041;-48
2022/01/26 08:49:09;;;;;;;7.80;3.35;;;25.40;30.00;;;;;;5026183;28;20037;-48
2022/01/26 08:51:36;;;;;;;5.60;3.20;;;25.40;30.00;;;;;;5025335;28;20063;-49
2022/01/26 08:54:02;;;;;;;4.85;3.03;;;25.40;29.80;;;;;;5025936;28;20492;-49
2022/01/26 08:56:28;;;;;;;3.83;2.40;;;25.40;29.90;;;;;;5025912;28;20124;-49
2022/01/26 08:58:54;;;;;;;4.57;2.85;;;25.50;29.90;;;;;;5025922;28;20121;-49
2022/01/26 09:01:20;;;;;;;3.78;2.42;;;25.50;29.80;;;;;;5025478;28;20033;-49
2022/01/26 09:03:46;;;;;;;5.40;3.15;;;25.50;29.80;;;;;;5025403;28;20057;-47
2022/01/26 09:06:12;;;;;;;4.47;2.75;;;25.50;29.80;;;;;;5025688;28;20061;-48
2022/01/26 09:08:40;;;;;;;4.57;2.85;;;25.50;29.80;;;;;;5025957;28;20623;-49
2022/01/26 09:11:07;;;;;;;5.90;2.78;;;25.50;29.80;;;;;;5025079;28;20030;-48
2022/01/26 09:13:34;;;;;;;4.30;2.70;;;25.50;29.80;;;;;;5025055;28;20075;-49
2022/01/26 09:16:03;;;;;;;4.53;2.60;;;25.50;29.70;;;;;;5025779;28;20018;-49
2022/01/26 09:18:47;;;;;;;4.22;2.80;;;25.50;29.70;;;;;;5025631;28;20033;-48
2022/01/26 09:21:13;;;;;;;3.60;2.22;;;25.50;29.70;;;;;;5025507;28;20021;-49
2022/01/26 09:23:39;;;;;;;4.80;2.60;;;25.50;29.70;;;;;;5025412;28;20033;-50
2022/01/26 09:26:05;;;;;;;4.28;2.47;;;25.50;29.70;;;;;;5025059;28;20087;-48
2022/01/26 09:28:30;;;;;;;3.70;2.22;;;25.50;29.70;;;;;;5025260;28;20037;-49
2022/01/26 09:30:56;;;;;;;4.80;2.78;;;25.50;29.70;;;;;;5023375;28;20029;-49
2022/01/26 09:33:22;;;;;;;4.00;2.40;;;25.50;29.70;;;;;;5024983;28;20074;-48
2022/01/26 09:35:48;;;;;;;4.65;2.50;;;25.50;29.60;;;;;;5024958;28;20033;-49
2022/01/26 09:38:14;;;;;;;3.50;2.10;;;25.50;29.60;;;;;;5025234;28;20493;-48
2022/01/26 09:40:39;;;;;;;3.35;2.05;;;25.50;29.70;;;;;;5024670;28;20026;-49
2022/01/26 09:43:06;;;;;;;4.30;2.60;;;25.50;29.60;;;;;;5025120;28;20033;-48
2022/01/26 09:45:34;;;;;;;3.63;2.20;;;25.50;29.50;;;;;;5025365;28;20029;-49
2022/01/26 09:48:04;;;;;;;4.03;2.28;;;25.50;29.60;;;;;;5025550;28;20096;-49
2022/01/26 09:50:31;;;;;;;4.78;2.70;;;25.60;29.60;;;;;;5024774;28;20176;-48
2022/01/26 09:52:57;;;;;;;4.28;2.20;;;25.60;29.60;;;;;;5025028;28;20701;-49
2022/01/26 09:55:24;;;;;;;3.83;2.20;;;25.60;29.50;;;;;;5025235;28;20025;-50
2022/01/26 09:57:57;;;;;;;4.07;2.35;;;25.60;29.50;;;;;;5024446;28;20175;-48
2022/01/26 10:00:22;;;;;;;3.92;2.38;;;25.60;29.50;;;;;;5024657;28;20036;-49
2022/01/26 10:03:00;;;;;;;3.75;2.20;;;25.60;29.50;;;;;;5024241;28;20037;-49
2022/01/26 10:05:36;;;;;;;4.38;2.67;;;25.50;29.50;;;;;;5024397;28;20542;-48
2022/01/26 10:19:08;;;;;;;4.32;2.63;;;25.50;29.60;;;;;;5024516;28;20246;-48
2022/01/26 10:21:48;;;;;;;3.53;1.92;;;25.50;29.50;;;;;;5023976;28;20021;-49
2022/01/26 10:24:14;;;;;;;3.97;2.53;;;25.50;29.60;;;;;;5024578;28;20049;-49
2022/01/26 10:26:39;;;;;;;3.90;2.25;;;25.50;29.50;;;;;;5023901;28;20025;-49
2022/01/26 10:29:05;;;;;;;3.25;2.10;;;25.40;29.50;;;;;;5024390;28;20056;-47
2022/01/26 10:31:39;;;;;;;3.50;2.05;;;25.50;29.50;;;;;;5023698;28;20025;-50
2022/01/26 10:34:22;;;;;;;4.22;1.95;;;25.50;29.60;;;;;;5023421;28;20025;-50
2022/01/26 10:36:57;;;;;;;3.33;1.80;;;25.50;29.50;;;;;;5023516;28;20540;-48
2022/01/26 10:42:02;;;;;;;4.00;1.98;;;25.50;29.60;;;;;;5023627;28;20091;-48
2022/01/26 10:44:49;;;;;;;3.63;2.15;;;25.50;29.50;;;;;;5024122;28;20100;-48
2022/01/26 10:47:26;;;;;;;3.35;1.90;;;25.50;29.50;;;;;;5024451;28;20041;-48
2022/01/26 10:52:38;;;;;;;3.15;1.73;;;25.50;29.50;;;;;;5023606;28;20498;-49
2022/01/26 10:55:09;;;;;;;2.85;1.80;;;25.50;29.50;;;;;;5023271;28;20036;-49
2022/01/26 10:57:35;;;;;;;3.75;2.10;;;25.50;29.50;;;;;;5022752;28;20049;-49
2022/01/26 11:00:03;;;;;;;2.92;1.67;;;25.50;29.50;;;;;;5024020;28;20052;-47
2022/01/26 11:02:32;;;;;;;3.28;1.88;;;25.50;29.50;;;;;;5024942;28;20052;-49
2022/01/26 11:04:58;;;;;;;3.47;1.90;;;25.50;29.50;;;;;;5028167;28;20049;-48
2022/01/26 11:07:33;;;;;;;3.20;1.80;;;25.50;29.50;;;;;;5027544;28;20025;-49
2022/01/26 11:10:03;;;;;;;3.50;1.90;;;25.50;29.50;;;;;;5028044;28;20144;-48
2022/01/26 11:12:30;;;;;;;3.20;1.80;;;25.50;29.50;;;;;;5027649;28;20033;-49
2022/01/26 11:15:05;;;;;;;3.30;1.45;;;25.50;29.50;;;;;;5028124;28;20112;-49
2022/01/26 11:17:40;;;;;;;3.90;2.20;;;25.50;29.50;;;;;;5028063;28;20396;-48
2022/01/26 11:20:31;;;;;;;3.63;2.17;;;25.50;29.50;;;;;;5028009;28;20314;-48
2022/01/26 11:23:02;;;;;;;3.15;1.85;;;25.50;29.50;;;;;;5028310;28;20107;-50
2022/01/26 11:25:39;;;;;;;3.22;1.90;;;25.50;29.40;;;;;;5027985;28;20034;-49
2022/01/26 11:28:23;;;;;;;2.83;1.48;;;25.50;29.50;;;;;;5015568;28;20042;-48
2022/01/26 11:30:51;;;;;;;3.53;1.70;;;25.50;29.40;;;;;;5027309;28;20029;-49
2022/01/26 11:33:19;;;;;;;3.35;1.80;;;25.50;29.40;;;;;;5042450;28;20052;-48
2022/01/26 11:35:48;;;;;;;3.53;1.83;;;25.50;29.40;;;;;;5026649;28;20017;-49
2022/01/26 11:47:02;;;;;;;2.97;1.55;;;25.50;29.40;;;;;;5025939;28;20147;-49
2022/01/26 11:49:36;;;;;;;2.88;1.45;;;25.50;29.40;;;;;;5027790;28;20049;-49
2022/01/26 11:52:03;;;;;;;2.53;1.45;;;25.50;29.40;;;;;;5026621;28;20044;-48
2022/01/26 11:54:55;;;;;;;3.30;1.83;;;25.50;29.40;;;;;;5027733;28;20412;-49
2022/01/26 11:57:37;;;;;;;3.00;1.50;;;25.50;29.40;;;;;;5025526;28;20030;-49
2022/01/26 12:00:08;;;;;;;2.53;1.30;;;25.50;29.40;;;;;;5007484;28;20083;-48
2022/01/26 12:02:51;;;;;;;3.95;2.05;;;25.50;29.30;;;;;;5013469;28;20642;-49
2022/01/26 12:05:22;;;;;;;2.95;1.50;;;25.50;29.40;;;;;;5027223;28;20037;-48
2022/01/26 12:07:52;;;;;;;2.85;1.63;;;25.50;29.30;;;;;;5026540;28;20036;-50
2022/01/26 12:10:30;;;;;;;3.30;1.45;;;25.50;29.30;;;;;;5027111;28;20032;-49
2022/01/26 12:13:01;;;;;;;2.83;1.60;;;25.50;29.30;;;;;;5026596;28;20041;-49
2022/01/26 12:15:32;;;;;;;3.40;1.50;;;25.50;29.30;;;;;;5026449;28;20112;-48
2022/01/26 12:32:10;;;;;;;3.45;1.65;;;25.50;29.30;;;;;;5026362;28;20627;-50
2022/01/26 12:35:00;;;;;;;3.10;1.30;;;25.50;29.30;;;;;;5041984;28;20257;-48
2022/01/26 12:45:06;;;;;;;3.13;1.60;;;25.50;29.30;;;;;;5026462;28;20545;-48
2022/01/26 12:47:32;;;;;;;2.63;1.63;;;25.50;29.30;;;;;;5026347;28;20041;-48
2022/01/26 12:49:58;;;;;;;2.67;1.45;;;25.50;29.30;;;;;;5026285;28;20339;-48
2022/01/26 12:52:25;;;;;;;2.55;1.48;;;25.50;29.30;;;;;;5025570;28;20095;-49
2022/01/26 12:54:50;;;;;;;3.15;1.70;;;25.50;29.30;;;;;;5026355;28;20026;-47
2022/01/26 12:57:16;;;;;;;2.55;1.38;;;25.50;29.30;;;;;;5025944;28;20527;-47
2022/01/26 12:59:43;;;;;;;2.55;1.48;;;25.50;29.20;;;;;;5024662;28;20065;-48
2022/01/26 13:02:10;;;;;;;2.53;1.42;;;25.50;29.20;;;;;;5025334;28;20045;-49
2022/01/26 13:04:36;;;;;;;3.03;1.73;;;25.50;29.20;;;;;;5025787;28;20421;-48
2022/01/26 13:07:03;;;;;;;4.82;1.50;;;25.50;29.20;;;;;;5024278;28;20040;-50
2022/01/26 13:09:41;;;;;;;3.38;1.88;;;25.50;29.20;;;;;;5040623;28;20446;-48
2022/01/26 13:12:09;;;;;;;3.13;1.70;;;25.50;29.20;;;;;;5024747;28;20090;-49
2022/01/26 13:14:41;;;;;;;2.80;1.58;;;25.50;29.20;;;;;;5025358;28;20741;-48
2022/01/26 13:17:20;;;;;;;2.15;1.20;;;25.50;29.20;;;;;;5024790;28;20029;-48
2022/01/26 13:30:13;;;;;;;2.67;1.40;;;25.50;29.30;;;;;;5005550;28;20555;-48
2022/01/26 13:33:08;;;;;;;2.53;1.30;;;25.50;29.20;;;;;;5004159;28;20101;-49
2022/01/26 13:40:49;;;;;;;2.50;1.37;;;25.50;29.20;;;;;;5005119;28;20064;-49
2022/01/26 13:51:18;;;;;;;2.97;1.70;;;25.50;29.10;;;;;;5024911;28;20175;-49
2022/01/26 13:56:58;;;;;;;2.45;1.35;;;25.50;29.10;;;;;;5024399;28;20667;-49
2022/01/26 13:59:09;;;;;;;2.85;1.40;;;25.50;29.10;;;;;;5018471;28;20049;-50
2022/01/26 14:01:36;;;;;;;2.05;1.20;;;25.50;29.10;;;;;;5015994;28;20564;-48
2022/01/26 14:04:05;;;;;;;2.65;1.40;;;25.50;29.00;;;;;;5015636;28;20603;-49
2022/01/26 14:06:31;;;;;;;4.07;1.90;;;25.50;29.10;;;;;;5007163;28;20029;-50
2022/01/26 14:08:57;;;;;;;2.50;1.30;;;25.50;29.10;;;;;;5023893;28;20036;-50
2022/01/26 14:11:22;;;;;;;3.30;1.23;;;25.50;29.20;;;;;;5023704;28;20094;-49
2022/01/26 14:13:49;;;;;;;2.60;1.30;;;25.50;29.20;;;;;;5023474;28;20026;-49
2022/01/26 14:16:18;;;;;;;3.20;1.33;;;25.40;29.20;;;;;;5024130;28;20104;-48
2022/01/26 14:26:25;;;;;;;3.30;1.73;;;25.50;29.30;;;;;;5022401;28;20068;-49
2022/01/26 14:28:51;;;;;;;2.80;1.60;;;25.50;29.30;;;;;;5023382;28;20552;-49
2022/01/26 14:34:06;;;;;;;2.67;1.30;;;25.50;29.40;;;;;;5022614;28;20026;-49
2022/01/26 15:31:26;;;;;;;2.50;1.48;;;25.50;29.50;;;;;;5022113;28;20104;-50
2022/01/26 15:33:34;;;;;;;3.40;1.45;;;25.50;29.50;;;;;;5022978;28;20058;-49
2022/01/26 15:41:51;;;;;;;3.05;1.75;;;25.50;29.60;;;;;;5022333;28;20109;-48
2022/01/26 15:50:09;;;;;;;5.45;1.98;;;25.40;30.00;;;;;;5024635;28;20126;-49
2022/01/26 15:52:55;;;;;;;3.67;1.60;;;25.40;30.00;;;;;;5026729;28;20041;-48
2022/01/26 15:58:24;;;;;;;4.60;1.85;;;25.40;30.00;;;;;;5026376;28;20103;-49
2022/01/26 16:17:20;;;;;;;3.97;1.85;;;25.30;30.00;;;;;;5025926;28;20087;-48
2022/01/26 16:20:15;;;;;;;4.30;2.17;;;25.30;30.00;;;;;;5025261;28;20022;-49
2022/01/26 18:25:57;;;;;;;3.92;2.15;;;25.20;30.40;;;;;;5022042;28;20025;-50
2022/01/26 18:50:00;;;;;;;6.55;2.75;;;25.10;31.30;;;;;;5022823;28;20650;-49
2022/01/26 18:52:26;;;;;;;5.85;3.53;;;25.10;31.20;;;;;;5022395;28;20065;-49
2022/01/26 18:54:51;;;;;;;5.35;3.15;;;25.10;31.20;;;;;;5022832;28;20044;-50
2022/01/26 18:57:17;;;;;;;6.72;3.10;;;25.10;31.10;;;;;;5020070;28;20029;-48
2022/01/26 18:59:43;;;;;;;6.78;3.40;;;25.10;31.20;;;;;;5002188;28;20080;-48
2022/01/26 19:02:09;;;;;;;7.20;3.78;;;25.10;31.60;;;;;;5022631;28;20171;-50
2022/01/26 19:04:44;;;;;;;7.57;3.40;;;25.10;32.20;;;;;;5023020;28;20160;-48
2022/01/26 19:07:10;;;;;;;6.82;3.45;;;25.10;32.30;;;;;;5022539;28;20104;-49
2022/01/26 19:09:42;;;;;;;6.40;3.40;;;25.00;32.70;;;;;;5023128;28;20116;-50
2022/01/26 19:12:12;;;;;;;6.35;3.33;;;25.00;32.70;;;;;;5022995;28;20035;-48
2022/01/26 19:14:42;;;;;;;6.95;3.70;;;25.00;32.90;;;;;;5023518;28;20935;-50
2022/01/26 19:17:24;;;;;;;8.77;3.97;;;25.10;32.70;;;;;;5023483;28;20097;-48
2022/01/26 19:20:15;;;;;;;7.28;3.33;;;25.00;32.90;;;;;;5023273;28;20045;-49
2022/01/26 19:27:47;;;;;;;5.38;2.85;;;25.00;33.60;;;;;;5026524;28;20544;-49
2022/01/26 19:33:19;;;;;;;6.13;3.35;;;25.00;32.90;;;;;;5025281;28;20030;-50
2022/01/26 19:47:13;;;;;;;3.85;2.60;;;25.00;32.70;;;;;;5026020;28;20043;-49
2022/01/26 19:52:20;;;;;;;4.53;2.38;;;25.00;32.70;;;;;;5025543;28;20086;-49
2022/01/26 19:54:49;;;;;;;4.60;2.42;;;25.00;32.70;;;;;;5026098;28;20128;-48
2022/01/26 19:57:16;;;;;;;4.95;2.70;;;25.00;32.70;;;;;;5025965;28;20669;-49
2022/01/26 19:59:42;;;;;;;4.80;2.85;;;25.00;32.70;;;;;;5026074;28;20033;-48
2022/01/26 20:02:08;;;;;;;4.47;2.67;;;25.00;32.60;;;;;;5025576;28;20048;-48
2022/01/26 20:04:34;;;;;;;3.70;2.13;;;25.00;32.60;;;;;;5025579;28;20029;-50
2022/01/26 20:07:06;;;;;;;4.10;2.60;;;25.00;32.50;;;;;;5025833;28;20704;-49